Terminal Aerodrome Forecast
Issued by NWS Wilmington, OH

Current Version | Previous Version | Text Only | Print | Product List | Glossary Off
Versions: 1 2 3 4 5 6 7 8 9 10 11 12 13 14 15 16 17 18 19

000
FTUS41 KILN 222120 AAB
TAFDAY
TAF AMD
KDAY 222120Z 2221/2318 24010KT P6SM VCTS BKN035CB
      TEMPO 2221/2222 25008G20KT 4SM -SHRA BR OVC025
     FM222200 28008KT P6SM VCSH BKN060
     FM230100 34004KT P6SM BKN100
     FM230900 01003KT 4SM BR BKN008
     FM231300 03006KT P6SM SCT250=

USA.gov is the U.S. government's official web portal to all federal, state and local government web resources and services.